sensor_id;sensor_type;location;lat;lon;timestamp;temperature;humidity
23403;DHT22;11874;48.228;11.684;2023-07-31T06:38:18;19.90;99.90
23403;DHT22;11874;48.228;11.684;2023-07-31T06:40:47;19.90;99.90
23403;DHT22;11874;48.228;11.684;2023-07-31T06:43:18;19.90;99.90
23403;DHT22;11874;48.228;11.684;2023-07-31T06:45:46;19.90;99.90
23403;DHT22;11874;48.228;11.684;2023-07-31T06:48:18;20.00;99.90
23403;DHT22;11874;48.228;11.684;2023-07-31T06:50:46;19.90;99.90
23403;DHT22;11874;48.228;11.684;2023-07-31T06:53:14;20.00;99.90
23403;DHT22;11874;48.228;11.684;2023-07-31T06:55:44;20.00;99.90
23403;DHT22;11874;48.228;11.684;2023-07-31T06:58:12;20.00;99.90
23403;DHT22;11874;48.228;11.684;2023-07-31T07:00:43;20.00;99.90
23403;DHT22;11874;48.228;11.684;2023-07-31T07:03:11;20.10;99.90
23403;DHT22;11874;48.228;11.684;2023-07-31T07:05:41;20.10;99.90
23403;DHT22;11874;48.228;11.684;2023-07-31T07:08:09;20.10;99.90
23403;DHT22;11874;48.228;11.684;2023-07-31T07:10:37;20.10;99.90
23403;DHT22;11874;48.228;11.684;2023-07-31T07:13:07;20.20;99.90
23403;DHT22;11874;48.228;11.684;2023-07-31T07:15:35;20.20;99.90
23403;DHT22;11874;48.228;11.684;2023-07-31T07:18:03;20.20;99.90
23403;DHT22;11874;48.228;11.684;2023-07-31T07:20:32;20.20;99.90
23403;DHT22;11874;48.228;11.684;2023-07-31T07:23:00;20.20;99.90
23403;DHT22;11874;48.228;11.684;2023-07-31T07:25:28;20.20;99.90
23403;DHT22;11874;48.228;11.684;2023-07-31T07:27:56;20.10;99.90
23403;DHT22;11874;48.228;11.684;2023-07-31T07:30:29;20.10;99.90
23403;DHT22;11874;48.228;11.684;2023-07-31T07:32:57;20.20;99.90
23403;DHT22;11874;48.228;11.684;2023-07-31T07:35:25;20.20;99.90
23403;DHT22;11874;48.228;11.684;2023-07-31T07:37:55;20.20;99.90
23403;DHT22;11874;48.228;11.684;2023-07-31T07:40:23;20.20;99.90
23403;DHT22;11874;48.228;11.684;2023-07-31T07:42:52;20.20;99.90
23403;DHT22;11874;48.228;11.684;2023-07-31T07:45:20;20.20;99.90
23403;DHT22;11874;48.228;11.684;2023-07-31T07:47:49;20.20;99.90
23403;DHT22;11874;48.228;11.684;2023-07-31T07:50:18;20.20;99.90
23403;DHT22;11874;48.228;11.684;2023-07-31T07:52:47;20.20;99.90
23403;DHT22;11874;48.228;11.684;2023-07-31T07:55:18;20.20;99.90
23403;DHT22;11874;48.228;11.684;2023-07-31T07:57:46;20.20;99.90
23403;DHT22;11874;48.228;11.684;2023-07-31T08:00:17;20.30;99.90
23403;DHT22;11874;48.228;11.684;2023-07-31T08:02:45;20.30;99.90
23403;DHT22;11874;48.228;11.684;2023-07-31T08:05:17;20.30;99.90
23403;DHT22;11874;48.228;11.684;2023-07-31T08:07:47;20.30;99.90
23403;DHT22;11874;48.228;11.684;2023-07-31T08:10:15;20.40;99.90
23403;DHT22;11874;48.228;11.684;2023-07-31T08:12:43;20.40;99.90
23403;DHT22;11874;48.228;11.684;2023-07-31T08:15:11;20.30;99.90
23403;DHT22;11874;48.228;11.684;2023-07-31T08:17:39;20.40;99.90
23403;DHT22;11874;48.228;11.684;2023-07-31T08:20:09;20.40;99.70
23403;DHT22;11874;48.228;11.684;2023-07-31T08:22:38;20.40;99.70
23403;DHT22;11874;48.228;11.684;2023-07-31T08:25:07;20.40;99.60
23403;DHT22;11874;48.228;11.684;2023-07-31T08:27:35;20.40;99.50
23403;DHT22;11874;48.228;11.684;2023-07-31T08:30:05;20.50;99.40
23403;DHT22;11874;48.228;11.684;2023-07-31T08:32:36;20.50;99.10
23403;DHT22;11874;48.228;11.684;2023-07-31T08:35:05;20.60;99.00
23403;DHT22;11874;48.228;11.684;2023-07-31T08:37:33;20.60;98.90
23403;DHT22;11874;48.228;11.684;2023-07-31T08:40:03;20.70;99.00
23403;DHT22;11874;48.228;11.684;2023-07-31T08:42:31;20.70;98.80
23403;DHT22;11874;48.228;11.684;2023-07-31T08:45:01;20.70;98.60
23403;DHT22;11874;48.228;11.684;2023-07-31T08:47:34;20.80;98.60
23403;DHT22;11874;48.228;11.684;2023-07-31T08:50:04;20.80;98.30
23403;DHT22;11874;48.228;11.684;2023-07-31T08:52:33;20.70;97.70
23403;DHT22;11874;48.228;11.684;2023-07-31T08:55:02;20.70;97.80
23403;DHT22;11874;48.228;11.684;2023-07-31T08:57:31;20.70;97.80
23403;DHT22;11874;48.228;11.684;2023-07-31T09:00:03;20.70;97.70
23403;DHT22;11874;48.228;11.684;2023-07-31T09:02:36;20.60;97.50
23403;DHT22;11874;48.228;11.684;2023-07-31T09:05:06;20.60;97.10
23403;DHT22;11874;48.228;11.684;2023-07-31T09:07:35;20.50;97.00
23403;DHT22;11874;48.228;11.684;2023-07-31T09:10:05;20.50;97.00
23403;DHT22;11874;48.228;11.684;2023-07-31T09:12:35;20.50;97.40
23403;DHT22;11874;48.228;11.684;2023-07-31T09:15:07;20.60;97.80
23403;DHT22;11874;48.228;11.684;2023-07-31T09:17:46;20.60;98.10
23403;DHT22;11874;48.228;11.684;2023-07-31T09:20:19;20.60;98.30
23403;DHT22;11874;48.228;11.684;2023-07-31T09:22:48;20.70;98.50
23403;DHT22;11874;48.228;11.684;2023-07-31T09:25:19;20.70;98.60
23403;DHT22;11874;48.228;11.684;2023-07-31T09:27:49;20.70;98.60
23403;DHT22;11874;48.228;11.684;2023-07-31T09:30:18;20.80;98.60
23403;DHT22;11874;48.228;11.684;2023-07-31T09:32:49;20.80;98.30
23403;DHT22;11874;48.228;11.684;2023-07-31T09:35:21;20.80;98.20
23403;DHT22;11874;48.228;11.684;2023-07-31T09:37:51;20.90;98.20
23403;DHT22;11874;48.228;11.684;2023-07-31T09:40:28;20.90;97.90
23403;DHT22;11874;48.228;11.684;2023-07-31T09:42:57;21.00;97.90
23403;DHT22;11874;48.228;11.684;2023-07-31T09:45:25;20.90;97.80
23403;DHT22;11874;48.228;11.684;2023-07-31T09:48:07;20.90;97.60
23403;DHT22;11874;48.228;11.684;2023-07-31T09:50:38;20.90;97.40
23403;DHT22;11874;48.228;11.684;2023-07-31T09:53:08;20.90;97.20
23403;DHT22;11874;48.228;11.684;2023-07-31T09:55:42;21.00;97.10
23403;DHT22;11874;48.228;11.684;2023-07-31T09:58:14;21.00;97.10
23403;DHT22;11874;48.228;11.684;2023-07-31T10:00:42;21.00;97.10
23403;DHT22;11874;48.228;11.684;2023-07-31T10:03:11;20.90;97.00
23403;DHT22;11874;48.228;11.684;2023-07-31T10:05:42;21.00;97.20
23403;DHT22;11874;48.228;11.684;2023-07-31T10:08:15;21.00;97.20
23403;DHT22;11874;48.228;11.684;2023-07-31T10:10:44;21.00;97.10
23403;DHT22;11874;48.228;11.684;2023-07-31T10:13:13;21.00;96.90
23403;DHT22;11874;48.228;11.684;2023-07-31T10:15:44;20.90;96.80
23403;DHT22;11874;48.228;11.684;2023-07-31T10:18:13;21.00;96.70
23403;DHT22;11874;48.228;11.684;2023-07-31T10:20:43;21.00;96.70
23403;DHT22;11874;48.228;11.684;2023-07-31T10:23:12;21.00;96.50
23403;DHT22;11874;48.228;11.684;2023-07-31T10:25:41;21.00;96.70
23403;DHT22;11874;48.228;11.684;2023-07-31T10:28:11;21.00;96.60
23403;DHT22;11874;48.228;11.684;2023-07-31T10:30:40;21.10;96.60
23403;DHT22;11874;48.228;11.684;2023-07-31T10:33:08;21.10;96.70
23403;DHT22;11874;48.228;11.684;2023-07-31T10:35:40;21.20;96.30
23403;DHT22;11874;48.228;11.684;2023-07-31T10:38:12;21.20;96.10
23403;DHT22;11874;48.228;11.684;2023-07-31T10:40:40;21.30;95.60
23403;DHT22;11874;48.228;11.684;2023-07-31T10:43:10;21.40;95.50
23403;DHT22;11874;48.228;11.684;2023-07-31T10:45:51;21.40;95.50
23403;DHT22;11874;48.228;11.684;2023-07-31T10:48:18;21.50;95.60
23403;DHT22;11874;48.228;11.684;2023-07-31T10:50:48;21.50;95.30
23403;DHT22;11874;48.228;11.684;2023-07-31T10:53:24;21.50;95.00
23403;DHT22;11874;48.228;11.684;2023-07-31T10:55:53;21.50;94.90
23403;DHT22;11874;48.228;11.684;2023-07-31T10:58:27;21.60;94.80
23403;DHT22;11874;48.228;11.684;2023-07-31T11:00:57;21.60;94.90
23403;DHT22;11874;48.228;11.684;2023-07-31T11:03:26;21.60;95.20
23403;DHT22;11874;48.228;11.684;2023-07-31T11:06:00;21.70;94.90
23403;DHT22;11874;48.228;11.684;2023-07-31T11:08:31;21.70;94.70
23403;DHT22;11874;48.228;11.684;2023-07-31T11:11:08;21.70;94.90
23403;DHT22;11874;48.228;11.684;2023-07-31T11:13:44;21.70;94.90
23403;DHT22;11874;48.228;11.684;2023-07-31T11:16:14;21.60;94.70
23403;DHT22;11874;48.228;11.684;2023-07-31T11:18:45;21.60;94.80
23403;DHT22;11874;48.228;11.684;2023-07-31T11:21:15;21.60;94.80
23403;DHT22;11874;48.228;11.684;2023-07-31T11:23:46;21.60;94.80
23403;DHT22;11874;48.228;11.684;2023-07-31T11:26:15;21.70;94.90
23403;DHT22;11874;48.228;11.684;2023-07-31T11:28:46;21.80;94.80
23403;DHT22;11874;48.228;11.684;2023-07-31T11:31:15;21.80;94.50
23403;DHT22;11874;48.228;11.684;2023-07-31T11:33:45;21.80;94.30
23403;DHT22;11874;48.228;11.684;2023-07-31T11:36:18;21.90;94.00
23403;DHT22;11874;48.228;11.684;2023-07-31T11:38:47;21.90;93.80
23403;DHT22;11874;48.228;11.684;2023-07-31T11:41:16;21.90;93.80
23403;DHT22;11874;48.228;11.684;2023-07-31T11:43:46;21.90;93.80
23403;DHT22;11874;48.228;11.684;2023-07-31T11:46:14;22.00;93.70
23403;DHT22;11874;48.228;11.684;2023-07-31T11:48:43;22.00;93.60
23403;DHT22;11874;48.228;11.684;2023-07-31T11:51:13;22.00;93.60
23403;DHT22;11874;48.228;11.684;2023-07-31T11:53:43;22.10;93.90
23403;DHT22;11874;48.228;11.684;2023-07-31T11:56:14;22.10;93.90
23403;DHT22;11874;48.228;11.684;2023-07-31T11:58:47;22.10;94.00
23403;DHT22;11874;48.228;11.684;2023-07-31T12:01:16;22.20;93.90
23403;DHT22;11874;48.228;11.684;2023-07-31T12:03:49;22.30;93.70
23403;DHT22;11874;48.228;11.684;2023-07-31T12:06:18;22.30;92.50
23403;DHT22;11874;48.228;11.684;2023-07-31T12:08:48;22.20;92.20
23403;DHT22;11874;48.228;11.684;2023-07-31T12:11:19;22.10;92.10
23403;DHT22;11874;48.228;11.684;2023-07-31T12:13:49;22.10;92.00
23403;DHT22;11874;48.228;11.684;2023-07-31T12:16:17;22.00;92.30
23403;DHT22;11874;48.228;11.684;2023-07-31T12:18:49;22.00;92.30
23403;DHT22;11874;48.228;11.684;2023-07-31T12:21:19;22.10;92.40
23403;DHT22;11874;48.228;11.684;2023-07-31T12:23:47;22.20;92.40
23403;DHT22;11874;48.228;11.684;2023-07-31T12:26:16;22.20;92.40
23403;DHT22;11874;48.228;11.684;2023-07-31T12:28:45;22.40;92.50
23403;DHT22;11874;48.228;11.684;2023-07-31T12:31:16;22.50;92.40
23403;DHT22;11874;48.228;11.684;2023-07-31T12:33:45;22.70;92.40
23403;DHT22;11874;48.228;11.684;2023-07-31T12:36:16;22.90;92.50
23403;DHT22;11874;48.228;11.684;2023-07-31T12:38:46;22.90;92.40
23403;DHT22;11874;48.228;11.684;2023-07-31T12:41:14;22.90;92.40
23403;DHT22;11874;48.228;11.684;2023-07-31T12:43:44;23.00;92.50
23403;DHT22;11874;48.228;11.684;2023-07-31T12:46:14;23.00;92.30
23403;DHT22;11874;48.228;11.684;2023-07-31T12:48:43;23.10;92.10
23403;DHT22;11874;48.228;11.684;2023-07-31T12:51:12;23.10;92.20
23403;DHT22;11874;48.228;11.684;2023-07-31T12:53:42;23.10;91.90
23403;DHT22;11874;48.228;11.684;2023-07-31T12:56:11;23.10;91.90
23403;DHT22;11874;48.228;11.684;2023-07-31T12:58:39;23.10;91.90
23403;DHT22;11874;48.228;11.684;2023-07-31T13:01:07;23.10;92.00
23403;DHT22;11874;48.228;11.684;2023-07-31T13:03:36;23.10;92.00
23403;DHT22;11874;48.228;11.684;2023-07-31T13:06:05;23.20;92.10
23403;DHT22;11874;48.228;11.684;2023-07-31T13:08:33;23.40;91.90
23403;DHT22;11874;48.228;11.684;2023-07-31T13:11:03;23.40;91.70
23403;DHT22;11874;48.228;11.684;2023-07-31T13:13:31;23.40;91.40
23403;DHT22;11874;48.228;11.684;2023-07-31T13:15:59;23.40;91.10
23403;DHT22;11874;48.228;11.684;2023-07-31T13:18:28;23.50;90.80
23403;DHT22;11874;48.228;11.684;2023-07-31T13:20:57;23.50;90.70
23403;DHT22;11874;48.228;11.684;2023-07-31T13:23:25;23.40;90.70
23403;DHT22;11874;48.228;11.684;2023-07-31T13:25:53;23.50;90.50
23403;DHT22;11874;48.228;11.684;2023-07-31T13:28:21;23.40;90.40
23403;DHT22;11874;48.228;11.684;2023-07-31T13:30:49;23.50;90.50
23403;DHT22;11874;48.228;11.684;2023-07-31T13:33:18;23.50;90.50
23403;DHT22;11874;48.228;11.684;2023-07-31T13:36:02;23.60;90.50
23403;DHT22;11874;48.228;11.684;2023-07-31T13:38:30;23.60;90.80
23403;DHT22;11874;48.228;11.684;2023-07-31T13:40:59;23.60;91.00
23403;DHT22;11874;48.228;11.684;2023-07-31T13:43:27;23.80;91.00
23403;DHT22;11874;48.228;11.684;2023-07-31T13:45:57;23.80;90.90
23403;DHT22;11874;48.228;11.684;2023-07-31T13:48:31;23.90;90.70
23403;DHT22;11874;48.228;11.684;2023-07-31T13:51:08;23.90;90.60
23403;DHT22;11874;48.228;11.684;2023-07-31T13:53:37;23.90;90.80
23403;DHT22;11874;48.228;11.684;2023-07-31T13:56:07;23.90;91.00
23403;DHT22;11874;48.228;11.684;2023-07-31T13:58:39;23.90;91.40
23403;DHT22;11874;48.228;11.684;2023-07-31T14:01:09;23.90;91.60
23403;DHT22;11874;48.228;11.684;2023-07-31T14:03:38;24.00;91.60
23403;DHT22;11874;48.228;11.684;2023-07-31T14:06:07;24.20;91.20
23403;DHT22;11874;48.228;11.684;2023-07-31T14:08:35;24.40;90.70
23403;DHT22;11874;48.228;11.684;2023-07-31T14:11:03;24.40;90.60
23403;DHT22;11874;48.228;11.684;2023-07-31T14:13:31;24.60;90.60
23403;DHT22;11874;48.228;11.684;2023-07-31T14:15:59;25.00;89.80
23403;DHT22;11874;48.228;11.684;2023-07-31T14:18:32;25.20;86.70
23403;DHT22;11874;48.228;11.684;2023-07-31T14:21:01;25.00;85.40
23403;DHT22;11874;48.228;11.684;2023-07-31T14:23:31;24.70;85.90
23403;DHT22;11874;48.228;11.684;2023-07-31T14:26:01;24.50;86.50
23403;DHT22;11874;48.228;11.684;2023-07-31T14:28:29;24.70;87.80
23403;DHT22;11874;48.228;11.684;2023-07-31T14:30:58;25.50;87.40
23403;DHT22;11874;48.228;11.684;2023-07-31T14:33:27;27.00;86.60
23403;DHT22;11874;48.228;11.684;2023-07-31T14:35:59;28.00;84.30
23403;DHT22;11874;48.228;11.684;2023-07-31T14:38:28;28.50;81.50
23403;DHT22;11874;48.228;11.684;2023-07-31T14:40:57;28.30;79.90
23403;DHT22;11874;48.228;11.684;2023-07-31T14:43:26;27.50;80.20
23403;DHT22;11874;48.228;11.684;2023-07-31T14:45:55;26.90;81.50
23403;DHT22;11874;48.228;11.684;2023-07-31T14:48:27;26.40;82.70
23403;DHT22;11874;48.228;11.684;2023-07-31T14:50:58;26.00;83.40
23403;DHT22;11874;48.228;11.684;2023-07-31T14:53:26;25.60;83.70
23403;DHT22;11874;48.228;11.684;2023-07-31T14:55:54;25.40;84.40
23403;DHT22;11874;48.228;11.684;2023-07-31T14:58:24;25.10;85.10
23403;DHT22;11874;48.228;11.684;2023-07-31T15:00:59;25.00;85.90
23403;DHT22;11874;48.228;11.684;2023-07-31T15:03:27;24.70;86.20
23403;DHT22;11874;48.228;11.684;2023-07-31T15:05:57;24.60;86.80
23403;DHT22;11874;48.228;11.684;2023-07-31T15:08:26;24.50;87.20
23403;DHT22;11874;48.228;11.684;2023-07-31T15:10:57;24.30;87.50
23403;DHT22;11874;48.228;11.684;2023-07-31T15:13:26;24.20;88.00
23403;DHT22;11874;48.228;11.684;2023-07-31T15:15:54;24.20;88.50
23403;DHT22;11874;48.228;11.684;2023-07-31T15:18:26;24.00;88.80
23403;DHT22;11874;48.228;11.684;2023-07-31T15:20:57;24.00;89.00
23403;DHT22;11874;48.228;11.684;2023-07-31T15:23:25;23.90;89.60
23403;DHT22;11874;48.228;11.684;2023-07-31T15:25:58;23.90;90.00
23403;DHT22;11874;48.228;11.684;2023-07-31T15:28:27;23.90;90.20
23403;DHT22;11874;48.228;11.684;2023-07-31T15:30:55;23.90;90.40
23403;DHT22;11874;48.228;11.684;2023-07-31T15:33:27;23.90;90.50
23403;DHT22;11874;48.228;11.684;2023-07-31T15:35:56;23.90;90.60
23403;DHT22;11874;48.228;11.684;2023-07-31T15:38:26;23.80;90.70
23403;DHT22;11874;48.228;11.684;2023-07-31T15:40:56;23.70;90.90
23403;DHT22;11874;48.228;11.684;2023-07-31T15:43:24;23.60;91.00
23403;DHT22;11874;48.228;11.684;2023-07-31T15:45:55;23.50;91.20
23403;DHT22;11874;48.228;11.684;2023-07-31T15:48:24;23.40;91.40
23403;DHT22;11874;48.228;11.684;2023-07-31T15:50:58;23.30;91.50
23403;DHT22;11874;48.228;11.684;2023-07-31T15:53:30;23.20;91.50
23403;DHT22;11874;48.228;11.684;2023-07-31T15:55:58;23.20;91.40
23403;DHT22;11874;48.228;11.684;2023-07-31T15:58:27;23.20;91.50
23403;DHT22;11874;48.228;11.684;2023-07-31T16:00:57;23.10;91.60
23403;DHT22;11874;48.228;11.684;2023-07-31T16:03:25;23.00;91.80
23403;DHT22;11874;48.228;11.684;2023-07-31T16:05:53;23.00;92.10
23403;DHT22;11874;48.228;11.684;2023-07-31T16:08:22;23.00;92.50
23403;DHT22;11874;48.228;11.684;2023-07-31T16:10:50;22.90;92.60
23403;DHT22;11874;48.228;11.684;2023-07-31T16:13:20;22.90;92.80
23403;DHT22;11874;48.228;11.684;2023-07-31T16:15:48;22.80;93.00
23403;DHT22;11874;48.228;11.684;2023-07-31T16:18:19;22.80;93.20
23403;DHT22;11874;48.228;11.684;2023-07-31T16:20:48;22.80;93.40
23403;DHT22;11874;48.228;11.684;2023-07-31T16:23:16;22.70;93.50
23403;DHT22;11874;48.228;11.684;2023-07-31T16:25:44;22.80;93.50
23403;DHT22;11874;48.228;11.684;2023-07-31T16:28:14;22.70;93.50
23403;DHT22;11874;48.228;11.684;2023-07-31T16:30:43;22.80;93.60
23403;DHT22;11874;48.228;11.684;2023-07-31T16:33:13;22.70;93.50
23403;DHT22;11874;48.228;11.684;2023-07-31T16:35:43;22.60;93.50
23403;DHT22;11874;48.228;11.684;2023-07-31T16:38:15;22.60;93.60
23403;DHT22;11874;48.228;11.684;2023-07-31T16:40:44;22.60;93.70
23403;DHT22;11874;48.228;11.684;2023-07-31T16:43:13;22.60;93.70
23403;DHT22;11874;48.228;11.684;2023-07-31T16:45:41;22.50;93.70
23403;DHT22;11874;48.228;11.684;2023-07-31T16:48:09;22.50;93.80
23403;DHT22;11874;48.228;11.684;2023-07-31T16:50:37;22.40;93.80
23403;DHT22;11874;48.228;11.684;2023-07-31T16:53:07;22.40;93.90
23403;DHT22;11874;48.228;11.684;2023-07-31T16:55:36;22.40;93.80
23403;DHT22;11874;48.228;11.684;2023-07-31T16:58:04;22.40;93.90
23403;DHT22;11874;48.228;11.684;2023-07-31T17:00:33;22.40;93.80
23403;DHT22;11874;48.228;11.684;2023-07-31T17:03:02;22.30;93.70
23403;DHT22;11874;48.228;11.684;2023-07-31T17:05:33;22.40;93.70
23403;DHT22;11874;48.228;11.684;2023-07-31T17:08:03;22.30;93.70
23403;DHT22;11874;48.228;11.684;2023-07-31T17:10:33;22.30;93.60
23403;DHT22;11874;48.228;11.684;2023-07-31T17:13:02;22.30;93.60
23403;DHT22;11874;48.228;11.684;2023-07-31T17:15:30;22.40;93.60
23403;DHT22;11874;48.228;11.684;2023-07-31T17:17:58;22.30;93.50
23403;DHT22;11874;48.228;11.684;2023-07-31T17:20:27;22.30;93.50
23403;DHT22;11874;48.228;11.684;2023-07-31T17:22:55;22.30;93.50
23403;DHT22;11874;48.228;11.684;2023-07-31T17:25:24;22.30;93.50
23403;DHT22;11874;48.228;11.684;2023-07-31T17:27:59;22.30;93.50
23403;DHT22;11874;48.228;11.684;2023-07-31T17:30:27;22.30;93.60
23403;DHT22;11874;48.228;11.684;2023-07-31T17:32:55;22.30;93.60
23403;DHT22;11874;48.228;11.684;2023-07-31T17:35:27;22.30;93.70
23403;DHT22;11874;48.228;11.684;2023-07-31T17:37:57;22.30;93.70
23403;DHT22;11874;48.228;11.684;2023-07-31T17:40:27;22.30;93.80
23403;DHT22;11874;48.228;11.684;2023-07-31T17:42:58;22.30;93.70
23403;DHT22;11874;48.228;11.684;2023-07-31T17:45:26;22.30;93.70
23403;DHT22;11874;48.228;11.684;2023-07-31T17:47:59;22.30;93.70
23403;DHT22;11874;48.228;11.684;2023-07-31T17:50:28;22.30;93.80
23403;DHT22;11874;48.228;11.684;2023-07-31T17:52:57;22.30;93.80
23403;DHT22;11874;48.228;11.684;2023-07-31T17:55:25;22.30;93.80
23403;DHT22;11874;48.228;11.684;2023-07-31T17:57:54;22.20;93.80
23403;DHT22;11874;48.228;11.684;2023-07-31T18:00:24;22.20;93.90
23403;DHT22;11874;48.228;11.684;2023-07-31T18:02:52;22.30;94.00
23403;DHT22;11874;48.228;11.684;2023-07-31T18:05:20;22.20;94.00
23403;DHT22;11874;48.228;11.684;2023-07-31T18:07:49;22.20;94.10
23403;DHT22;11874;48.228;11.684;2023-07-31T18:10:18;22.20;94.00
23403;DHT22;11874;48.228;11.684;2023-07-31T18:12:48;22.20;94.10
23403;DHT22;11874;48.228;11.684;2023-07-31T18:15:16;22.20;94.10
23403;DHT22;11874;48.228;11.684;2023-07-31T18:17:45;22.20;94.20
23403;DHT22;11874;48.228;11.684;2023-07-31T18:20:13;22.20;94.60
23403;DHT22;11874;48.228;11.684;2023-07-31T18:22:42;22.20;94.30
23403;DHT22;11874;48.228;11.684;2023-07-31T18:25:10;22.10;94.40
23403;DHT22;11874;48.228;11.684;2023-07-31T18:27:39;22.10;94.50
23403;DHT22;11874;48.228;11.684;2023-07-31T18:30:11;22.10;94.60
23403;DHT22;11874;48.228;11.684;2023-07-31T18:32:40;22.10;94.70
23403;DHT22;11874;48.228;11.684;2023-07-31T18:35:09;22.10;94.80
23403;DHT22;11874;48.228;11.684;2023-07-31T18:37:37;22.10;94.90
23403;DHT22;11874;48.228;11.684;2023-07-31T18:40:06;22.00;95.00
23403;DHT22;11874;48.228;11.684;2023-07-31T18:42:36;22.00;95.10
23403;DHT22;11874;48.228;11.684;2023-07-31T18:45:05;22.10;95.10
23403;DHT22;11874;48.228;11.684;2023-07-31T18:47:34;22.00;95.30
23403;DHT22;11874;48.228;11.684;2023-07-31T18:50:02;22.00;95.40
23403;DHT22;11874;48.228;11.684;2023-07-31T18:52:32;22.00;96.00
23403;DHT22;11874;48.228;11.684;2023-07-31T18:55:02;21.90;95.80
23403;DHT22;11874;48.228;11.684;2023-07-31T18:57:31;21.90;96.00
23403;DHT22;11874;48.228;11.684;2023-07-31T18:59:58;21.90;96.20
23403;DHT22;11874;48.228;11.684;2023-07-31T19:02:26;21.90;96.40
23403;DHT22;11874;48.228;11.684;2023-07-31T19:04:54;21.90;96.60
23403;DHT22;11874;48.228;11.684;2023-07-31T19:07:23;21.80;96.70
23403;DHT22;11874;48.228;11.684;2023-07-31T19:09:53;21.80;96.90
23403;DHT22;11874;48.228;11.684;2023-07-31T19:12:41;21.80;97.00
23403;DHT22;11874;48.228;11.684;2023-07-31T19:15:10;21.70;97.20
23403;DHT22;11874;48.228;11.684;2023-07-31T19:17:38;21.70;97.30
23403;DHT22;11874;48.228;11.684;2023-07-31T19:20:07;21.70;97.40
23403;DHT22;11874;48.228;11.684;2023-07-31T19:22:36;21.70;97.60
23403;DHT22;11874;48.228;11.684;2023-07-31T19:25:07;21.60;97.80
23403;DHT22;11874;48.228;11.684;2023-07-31T19:27:35;21.60;97.90
23403;DHT22;11874;48.228;11.684;2023-07-31T19:30:04;21.60;98.10
23403;DHT22;11874;48.228;11.684;2023-07-31T19:32:33;21.60;98.20
23403;DHT22;11874;48.228;11.684;2023-07-31T19:35:00;21.70;98.30
23403;DHT22;11874;48.228;11.684;2023-07-31T19:37:30;21.70;98.40
23403;DHT22;11874;48.228;11.684;2023-07-31T19:39:58;21.60;98.50
23403;DHT22;11874;48.228;11.684;2023-07-31T19:42:28;21.60;98.60
23403;DHT22;11874;48.228;11.684;2023-07-31T19:44:59;21.60;98.60
23403;DHT22;11874;48.228;11.684;2023-07-31T19:47:28;21.60;98.70
23403;DHT22;11874;48.228;11.684;2023-07-31T19:49:57;21.60;98.70
23403;DHT22;11874;48.228;11.684;2023-07-31T19:52:26;21.60;98.70
23403;DHT22;11874;48.228;11.684;2023-07-31T19:54:54;21.50;98.80
23403;DHT22;11874;48.228;11.684;2023-07-31T19:57:22;21.60;98.90
23403;DHT22;11874;48.228;11.684;2023-07-31T19:59:51;21.50;98.80
23403;DHT22;11874;48.228;11.684;2023-07-31T20:02:19;21.60;98.80
23403;DHT22;11874;48.228;11.684;2023-07-31T20:04:50;21.50;98.90
23403;DHT22;11874;48.228;11.684;2023-07-31T20:07:18;21.60;99.00
23403;DHT22;11874;48.228;11.684;2023-07-31T20:09:45;21.50;99.10
23403;DHT22;11874;48.228;11.684;2023-07-31T20:12:13;21.50;99.20
23403;DHT22;11874;48.228;11.684;2023-07-31T20:14:41;21.50;99.30
23403;DHT22;11874;48.228;11.684;2023-07-31T20:17:11;21.50;99.30
23403;DHT22;11874;48.228;11.684;2023-07-31T20:19:40;21.50;99.40
23403;DHT22;11874;48.228;11.684;2023-07-31T20:22:10;21.50;99.60
23403;DHT22;11874;48.228;11.684;2023-07-31T20:24:38;21.50;99.70
23403;DHT22;11874;48.228;11.684;2023-07-31T20:27:07;21.40;99.80
23403;DHT22;11874;48.228;11.684;2023-07-31T20:29:36;21.40;99.90
23403;DHT22;11874;48.228;11.684;2023-07-31T20:32:07;21.50;99.90
23403;DHT22;11874;48.228;11.684;2023-07-31T20:34:36;21.40;99.90
23403;DHT22;11874;48.228;11.684;2023-07-31T20:37:04;21.40;99.80
23403;DHT22;11874;48.228;11.684;2023-07-31T20:39:34;21.50;99.80
23403;DHT22;11874;48.228;11.684;2023-07-31T20:42:04;21.40;99.50
23403;DHT22;11874;48.228;11.684;2023-07-31T20:44:32;21.40;99.40
23403;DHT22;11874;48.228;11.684;2023-07-31T20:47:00;21.40;99.30
23403;DHT22;11874;48.228;11.684;2023-07-31T20:49:28;21.40;99.20
23403;DHT22;11874;48.228;11.684;2023-07-31T20:51:58;21.40;99.10
23403;DHT22;11874;48.228;11.684;2023-07-31T20:54:26;21.40;98.90
23403;DHT22;11874;48.228;11.684;2023-07-31T20:56:54;21.40;98.80
